createdAt,value
2018-03-29T00:00:30.694Z,999.85
2018-03-29T00:01:30.773Z,999.86
2018-03-29T00:02:30.695Z,999.83
2018-03-29T00:03:31.031Z,999.85
2018-03-29T00:04:30.808Z,999.86
2018-03-29T00:05:30.786Z,999.82
2018-03-29T00:06:30.807Z,999.88
2018-03-29T00:07:30.841Z,999.91
2018-03-29T00:08:30.871Z,999.89
2018-03-29T00:09:30.913Z,999.92
2018-03-29T00:10:31.225Z,999.94
2018-03-29T00:11:30.948Z,999.93
2018-03-29T00:12:30.982Z,999.92
2018-03-29T00:13:31.006Z,999.98
2018-03-29T00:14:31.032Z,999.95
2018-03-29T00:15:31.072Z,999.98
2018-03-29T00:16:31.126Z,1000.00
2018-03-29T00:17:31.373Z,999.97
2018-03-29T00:18:31.152Z,999.95
2018-03-29T00:19:31.177Z,999.99
2018-03-29T00:20:31.248Z,999.98
2018-03-29T00:21:31.280Z,999.99
2018-03-29T00:22:31.264Z,1000.01
2018-03-29T00:23:31.294Z,1000.00
2018-03-29T00:24:31.617Z,999.98
2018-03-29T00:25:31.352Z,999.97
2018-03-29T00:26:31.372Z,999.94
2018-03-29T00:27:31.406Z,999.94
2018-03-29T00:28:31.516Z,999.98
2018-03-29T00:29:31.461Z,999.97
2018-03-29T00:30:31.489Z,999.99
2018-03-29T00:31:31.817Z,999.96
2018-03-29T00:32:31.556Z,1000.05
2018-03-29T00:33:31.632Z,1000.00
2018-03-29T00:34:31.718Z,1000.05
2018-03-29T00:35:31.670Z,1000.07
2018-03-29T00:36:31.656Z,1000.08
2018-03-29T00:37:31.681Z,1000.06
2018-03-29T00:38:32.011Z,1000.07
2018-03-29T00:39:31.741Z,1000.08
2018-03-29T00:40:31.794Z,1000.10
2018-03-29T00:41:31.798Z,1000.07
2018-03-29T00:42:31.822Z,1000.11
2018-03-29T00:43:31.851Z,1000.11
2018-03-29T00:44:31.882Z,1000.13
2018-03-29T00:45:32.259Z,1000.12
2018-03-29T00:46:31.933Z,1000.18
2018-03-29T00:47:31.973Z,1000.13
2018-03-29T00:48:32.029Z,1000.14
2018-03-29T00:49:32.018Z,1000.22
2018-03-29T00:50:32.078Z,1000.19
2018-03-29T00:51:32.172Z,1000.16
2018-03-29T00:52:32.427Z,1000.21
2018-03-29T00:53:32.250Z,1000.12
2018-03-29T00:54:32.161Z,1000.11
2018-03-29T00:55:32.189Z,1000.16
2018-03-29T00:56:32.216Z,1000.17
2018-03-29T00:57:32.294Z,1000.25
2018-03-29T00:58:32.277Z,1000.24
2018-03-29T00:59:32.564Z,1000.28
2018-03-29T01:00:32.340Z,1000.25
2018-03-29T01:01:32.357Z,1000.26
2018-03-29T01:02:32.386Z,1000.27
2018-03-29T01:03:32.463Z,1000.23
2018-03-29T01:04:32.449Z,1000.24
2018-03-29T01:05:32.476Z,1000.26
2018-03-29T01:06:32.862Z,1000.19
2018-03-29T01:07:32.528Z,1000.24
2018-03-29T01:08:32.554Z,1000.27
2018-03-29T01:09:32.584Z,1000.26
2018-03-29T01:10:32.662Z,1000.24
2018-03-29T01:11:32.639Z,1000.25
2018-03-29T01:12:32.976Z,1000.30
2018-03-29T01:13:32.708Z,1000.29
2018-03-29T01:14:32.726Z,1000.33
2018-03-29T01:15:32.822Z,1000.29
2018-03-29T01:16:32.810Z,1000.31
2018-03-29T01:17:32.809Z,1000.29
2018-03-29T01:18:33.089Z,1000.33
2018-03-29T01:19:32.868Z,1000.31
2018-03-29T01:20:32.895Z,1000.34
2018-03-29T01:21:32.927Z,1000.35
2018-03-29T01:22:32.965Z,1000.36
2018-03-29T01:23:32.977Z,1000.36
2018-03-29T01:24:33.257Z,1000.37
2018-03-29T01:25:33.035Z,1000.39
2018-03-29T01:26:33.066Z,1000.36
2018-03-29T01:27:33.097Z,1000.39
2018-03-29T01:28:33.122Z,1000.34
2018-03-29T01:29:33.146Z,1000.41
2018-03-29T01:30:33.501Z,1000.41
2018-03-29T01:31:33.207Z,1000.44
2018-03-29T01:32:33.233Z,1000.44
2018-03-29T01:33:33.258Z,1000.46
2018-03-29T01:34:33.296Z,1000.48
2018-03-29T01:35:33.370Z,1000.44
2018-03-29T01:36:33.599Z,1000.50
2018-03-29T01:37:33.414Z,1000.48
2018-03-29T01:38:33.417Z,1000.46
2018-03-29T01:39:33.431Z,1000.50
2018-03-29T01:40:33.490Z,1000.51
2018-03-29T01:41:33.502Z,1000.48
2018-03-29T01:42:33.772Z,1000.53
2018-03-29T01:43:33.542Z,1000.54
2018-03-29T01:44:33.673Z,1000.55
2018-03-29T01:45:33.599Z,1000.56
2018-03-29T01:46:33.635Z,1000.55
2018-03-29T01:47:33.694Z,1000.54
2018-03-29T01:48:33.982Z,1000.54
2018-03-29T01:49:33.766Z,1000.58
2018-03-29T01:50:33.739Z,1000.55
2018-03-29T01:51:33.769Z,1000.57
2018-03-29T01:52:33.801Z,1000.51
2018-03-29T01:53:33.822Z,1000.57
2018-03-29T01:54:34.166Z,1000.56
2018-03-29T01:55:33.879Z,1000.57
2018-03-29T01:56:33.907Z,1000.60
2018-03-29T01:57:33.937Z,1000.60
2018-03-29T01:58:33.976Z,1000.62
2018-03-29T01:59:34.000Z,1000.67
2018-03-29T02:00:34.339Z,1000.68
2018-03-29T02:01:34.052Z,1000.68
2018-03-29T02:02:34.075Z,1000.71
2018-03-29T02:03:34.130Z,1000.69
2018-03-29T02:04:34.140Z,1000.74
2018-03-29T02:05:34.171Z,1000.76
2018-03-29T02:06:34.501Z,1000.81
2018-03-29T02:07:34.224Z,1000.78
2018-03-29T02:08:34.330Z,1000.76
2018-03-29T02:09:34.282Z,1000.78
2018-03-29T02:10:34.316Z,1000.76
2018-03-29T02:11:34.329Z,1000.76
2018-03-29T02:12:34.672Z,1000.74
2018-03-29T02:13:34.390Z,1000.73
2018-03-29T02:14:34.443Z,1000.78
2018-03-29T02:15:34.451Z,1000.78
2018-03-29T02:16:34.495Z,1000.79
2018-03-29T02:17:34.503Z,1000.80
2018-03-29T02:18:34.890Z,1000.81
2018-03-29T02:19:34.559Z,1000.83
2018-03-29T02:20:34.587Z,1000.83
2018-03-29T02:21:34.621Z,1000.87
2018-03-29T02:22:34.654Z,1000.87
2018-03-29T02:23:34.765Z,1000.81
2018-03-29T02:24:34.698Z,1000.87
2018-03-29T02:25:35.046Z,1000.84
2018-03-29T02:26:34.797Z,1000.84
2018-03-29T02:27:34.796Z,1000.85
2018-03-29T02:28:34.809Z,1000.86
2018-03-29T02:29:34.956Z,1000.84
2018-03-29T02:30:34.870Z,1000.88
2018-03-29T02:31:34.957Z,1000.87
2018-03-29T02:32:35.223Z,1000.92
2018-03-29T02:33:35.066Z,1000.90
2018-03-29T02:34:35.024Z,1000.91
2018-03-29T02:35:35.010Z,1000.90
2018-03-29T02:36:35.088Z,1000.85
2018-03-29T02:37:35.064Z,1000.88
2018-03-29T02:38:35.103Z,1000.90
2018-03-29T02:39:35.372Z,1000.92
2018-03-29T02:40:35.147Z,1000.93
2018-03-29T02:41:35.242Z,1000.89
2018-03-29T02:42:35.229Z,1000.95
2018-03-29T02:43:35.233Z,1000.94
2018-03-29T02:44:35.269Z,1000.90
2018-03-29T02:45:35.304Z,1000.96
2018-03-29T02:46:35.623Z,1000.98
2018-03-29T02:47:35.411Z,1000.97
2018-03-29T02:48:35.424Z,1000.98
2018-03-29T02:49:35.405Z,1000.98
2018-03-29T02:50:35.431Z,1000.97
2018-03-29T02:51:35.457Z,1001.00
2018-03-29T02:52:35.488Z,1000.96
2018-03-29T02:53:35.872Z,1001.00
2018-03-29T02:54:35.543Z,1001.01
2018-03-29T02:55:35.600Z,1001.06
2018-03-29T02:56:35.603Z,1001.03
2018-03-29T02:57:35.634Z,1001.02
2018-03-29T02:58:35.774Z,1001.03
2018-03-29T02:59:35.753Z,1001.04
2018-03-29T03:00:35.964Z,1000.99
2018-03-29T03:01:35.806Z,1001.05
2018-03-29T03:02:35.769Z,1001.02
2018-03-29T03:03:35.798Z,1001.06
2018-03-29T03:04:35.831Z,1001.03
2018-03-29T03:05:35.857Z,1001.05
2018-03-29T03:06:35.885Z,1001.10
2018-03-29T03:07:36.214Z,1001.12
2018-03-29T03:08:35.939Z,1001.11
2018-03-29T03:09:35.971Z,1001.14
2018-03-29T03:10:35.999Z,1001.12
2018-03-29T03:11:36.035Z,1001.12
2018-03-29T03:12:36.052Z,1001.15
2018-03-29T03:13:36.079Z,1001.13
2018-03-29T03:14:36.458Z,1001.12
2018-03-29T03:15:36.179Z,1001.17
2018-03-29T03:16:36.176Z,1001.10
2018-03-29T03:17:36.204Z,1001.09
2018-03-29T03:18:36.221Z,1001.05
2018-03-29T03:19:36.298Z,1000.98
2018-03-29T03:20:36.278Z,1001.01
2018-03-29T03:21:36.558Z,1001.00
2018-03-29T03:22:36.336Z,1001.03
2018-03-29T03:23:36.411Z,1001.03
2018-03-29T03:24:36.396Z,1001.10
2018-03-29T03:25:36.425Z,1001.06
2018-03-29T03:26:36.448Z,1001.04
2018-03-29T03:27:36.484Z,1001.06
2018-03-29T03:28:36.758Z,1001.03
2018-03-29T03:29:36.535Z,1001.08
2018-03-29T03:30:36.570Z,1001.07
2018-03-29T03:31:36.594Z,1001.05
2018-03-29T03:32:36.621Z,1001.03
2018-03-29T03:33:36.699Z,1001.07
2018-03-29T03:34:36.741Z,1001.08
2018-03-29T03:35:37.000Z,1001.02
2018-03-29T03:36:36.743Z,1001.04
2018-03-29T03:37:36.760Z,1000.98
2018-03-29T03:38:36.840Z,1001.02
2018-03-29T03:39:36.818Z,1001.05
2018-03-29T03:40:36.846Z,1001.03
2018-03-29T03:41:37.173Z,1001.07
2018-03-29T03:42:36.920Z,1001.04
2018-03-29T03:43:36.983Z,1001.06
2018-03-29T03:44:36.961Z,1001.06
2018-03-29T03:45:37.026Z,1001.10
2018-03-29T03:46:37.026Z,1001.09
2018-03-29T03:47:37.351Z,1001.06
2018-03-29T03:48:37.067Z,1001.12
2018-03-29T03:49:37.099Z,1001.11
2018-03-29T03:50:37.194Z,1001.10
2018-03-29T03:51:37.163Z,1001.07
2018-03-29T03:52:37.221Z,1001.11
2018-03-29T03:53:37.513Z,1001.09
2018-03-29T03:54:37.291Z,1001.13
2018-03-29T03:55:37.299Z,1001.09
2018-03-29T03:56:37.325Z,1001.06
2018-03-29T03:57:37.327Z,1001.07
2018-03-29T03:58:37.382Z,1001.05
2018-03-29T03:59:37.705Z,1001.05
2018-03-29T04:00:37.482Z,1001.06
2018-03-29T04:01:37.447Z,1001.05
2018-03-29T04:02:37.591Z,1001.01
2018-03-29T04:03:37.500Z,1001.00
2018-03-29T04:04:37.531Z,1001.00
2018-03-29T04:05:37.803Z,1001.03
2018-03-29T04:06:37.634Z,1001.01
2018-03-29T04:07:37.663Z,1001.03
2018-03-29T04:08:37.636Z,1001.02
2018-03-29T04:09:37.673Z,1001.00
2018-03-29T04:10:37.693Z,1001.04
2018-03-29T04:11:37.978Z,1001.06
2018-03-29T04:12:37.751Z,1001.06
2018-03-29T04:13:37.795Z,1001.08
2018-03-29T04:14:37.809Z,1001.11
2018-03-29T04:15:37.834Z,1001.15
2018-03-29T04:16:37.862Z,1001.13
2018-03-29T04:17:38.292Z,1001.18
2018-03-29T04:18:37.947Z,1001.14
2018-03-29T04:19:37.954Z,1001.18
2018-03-29T04:20:37.988Z,1001.18
2018-03-29T04:21:38.015Z,1001.19
2018-03-29T04:22:38.031Z,1001.14
2018-03-29T04:23:38.364Z,1001.15
2018-03-29T04:24:38.095Z,1001.14
2018-03-29T04:25:38.149Z,1001.12
2018-03-29T04:26:38.145Z,1001.15
2018-03-29T04:27:38.176Z,1001.12
2018-03-29T04:28:38.205Z,1001.14
2018-03-29T04:29:38.536Z,1001.15
2018-03-29T04:30:38.260Z,1001.15
2018-03-29T04:31:38.297Z,1001.09
2018-03-29T04:32:38.325Z,1001.11
2018-03-29T04:33:38.344Z,1001.10
2018-03-29T04:34:38.386Z,1001.08
2018-03-29T04:35:38.765Z,1001.11
2018-03-29T04:36:38.455Z,1001.08
2018-03-29T04:37:38.458Z,1001.10
2018-03-29T04:38:38.485Z,1001.08
2018-03-29T04:39:38.519Z,1001.09
2018-03-29T04:40:38.619Z,1001.09
2018-03-29T04:41:38.830Z,1001.07
2018-03-29T04:42:38.610Z,1001.06
2018-03-29T04:43:38.648Z,1001.06
2018-03-29T04:44:38.689Z,1001.03
2018-03-29T04:45:38.747Z,1001.05
2018-03-29T04:46:38.729Z,1001.03
2018-03-29T04:47:39.043Z,1001.02
2018-03-29T04:48:38.795Z,1001.01
2018-03-29T04:49:38.809Z,1001.01
2018-03-29T04:50:38.825Z,1000.99
2018-03-29T04:51:38.853Z,1001.03
2018-03-29T04:52:38.883Z,1001.02
2018-03-29T04:53:38.969Z,1001.05
2018-03-29T04:54:39.287Z,1001.04
2018-03-29T04:55:38.967Z,1001.05
2018-03-29T04:56:39.006Z,1001.09
2018-03-29T04:57:39.091Z,1001.07
2018-03-29T04:58:39.058Z,1001.15
2018-03-29T04:59:39.083Z,1001.11
2018-03-29T05:00:39.131Z,1001.08
2018-03-29T05:01:39.390Z,1001.12
2018-03-29T05:02:39.170Z,1001.15
2018-03-29T05:03:39.193Z,1001.13
2018-03-29T05:04:39.262Z,1001.13
2018-03-29T05:05:39.262Z,1001.18
2018-03-29T05:06:39.287Z,1001.16
2018-03-29T05:07:39.342Z,1001.17
2018-03-29T05:08:39.666Z,1001.22
2018-03-29T05:09:39.362Z,1001.20
2018-03-29T05:10:39.415Z,1001.21
2018-03-29T05:11:39.474Z,1001.16
2018-03-29T05:12:39.452Z,1001.16
2018-03-29T05:13:39.483Z,1001.18
2018-03-29T05:14:39.548Z,1001.19
2018-03-29T05:15:39.807Z,1001.22
2018-03-29T05:16:39.630Z,1001.18
2018-03-29T05:17:39.597Z,1001.23
2018-03-29T05:18:39.700Z,1001.18
2018-03-29T05:19:39.666Z,1001.21
2018-03-29T05:20:39.727Z,1001.20
2018-03-29T05:21:39.716Z,1001.19
2018-03-29T05:22:40.041Z,1001.15
2018-03-29T05:23:39.778Z,1001.16
2018-03-29T05:24:39.797Z,1001.19
2018-03-29T05:25:39.826Z,1001.20
2018-03-29T05:26:39.868Z,1001.19
2018-03-29T05:27:39.900Z,1001.21
2018-03-29T05:28:39.914Z,1001.19
2018-03-29T05:29:40.190Z,1001.23
2018-03-29T05:30:39.964Z,1001.22
2018-03-29T05:31:39.995Z,1001.20
2018-03-29T05:32:40.017Z,1001.21
2018-03-29T05:33:40.059Z,1001.21
2018-03-29T05:34:40.081Z,1001.25
2018-03-29T05:35:40.127Z,1001.25
2018-03-29T05:36:40.403Z,1001.29
2018-03-29T05:37:40.209Z,1001.25
2018-03-29T05:38:40.192Z,1001.25
2018-03-29T05:39:40.217Z,1001.23
2018-03-29T05:40:40.317Z,1001.25
2018-03-29T05:41:40.319Z,1001.23
2018-03-29T05:42:40.358Z,1001.23
2018-03-29T05:43:40.595Z,1001.24
2018-03-29T05:44:40.359Z,1001.24
2018-03-29T05:45:40.396Z,1001.24
2018-03-29T05:46:40.418Z,1001.23
2018-03-29T05:47:40.446Z,1001.25
2018-03-29T05:48:40.481Z,1001.20
2018-03-29T05:49:40.542Z,1001.19
2018-03-29T05:50:40.848Z,1001.14
2018-03-29T05:51:40.565Z,1001.15
2018-03-29T05:52:40.591Z,1001.15
2018-03-29T05:53:40.811Z,1001.16
2018-03-29T05:54:40.644Z,1001.15
2018-03-29T05:55:40.678Z,1001.17
2018-03-29T05:56:40.701Z,1001.15
2018-03-29T05:57:41.041Z,1001.14
2018-03-29T05:58:40.815Z,1001.17
2018-03-29T05:59:40.788Z,1001.14
2018-03-29T06:00:40.840Z,1001.13
2018-03-29T06:01:40.848Z,1001.16
2018-03-29T06:02:40.987Z,1001.17
2018-03-29T06:03:40.907Z,1001.18
2018-03-29T06:04:41.209Z,1001.18
2018-03-29T06:05:40.971Z,1001.19
2018-03-29T06:06:40.986Z,1001.20
2018-03-29T06:07:41.065Z,1001.23
2018-03-29T06:08:41.046Z,1001.22
2018-03-29T06:09:41.079Z,1001.25
2018-03-29T06:10:41.350Z,1001.30
2018-03-29T06:11:41.131Z,1001.29
2018-03-29T06:12:41.164Z,1001.31
2018-03-29T06:13:41.200Z,1001.28
2018-03-29T06:14:41.218Z,1001.33
2018-03-29T06:15:41.248Z,1001.37
2018-03-29T06:16:41.521Z,1001.32
2018-03-29T06:17:41.312Z,1001.35
2018-03-29T06:18:41.382Z,1001.34
2018-03-29T06:19:41.360Z,1001.32
2018-03-29T06:20:41.393Z,1001.33
2018-03-29T06:21:41.422Z,1001.36
2018-03-29T06:22:41.694Z,1001.32
2018-03-29T06:23:41.483Z,1001.36
2018-03-29T06:24:41.516Z,1001.39
2018-03-29T06:25:41.529Z,1001.38
2018-03-29T06:26:41.561Z,1001.41
2018-03-29T06:27:41.586Z,1001.45
2018-03-29T06:28:41.871Z,1001.44
2018-03-29T06:29:41.652Z,1001.45
2018-03-29T06:30:41.681Z,1001.49
2018-03-29T06:31:41.699Z,1001.49
2018-03-29T06:32:41.744Z,1001.49
2018-03-29T06:33:41.778Z,1001.50
2018-03-29T06:34:42.108Z,1001.51
2018-03-29T06:35:41.821Z,1001.53
2018-03-29T06:36:41.869Z,1001.57
2018-03-29T06:37:41.883Z,1001.57
2018-03-29T06:38:42.011Z,1001.57
2018-03-29T06:39:41.938Z,1001.62
2018-03-29T06:40:42.262Z,1001.60
2018-03-29T06:41:41.987Z,1001.61
2018-03-29T06:42:42.015Z,1001.61
2018-03-29T06:43:42.044Z,1001.60
2018-03-29T06:44:42.072Z,1001.63
2018-03-29T06:45:42.113Z,1001.61
2018-03-29T06:46:42.443Z,1001.61
2018-03-29T06:47:42.163Z,1001.62
2018-03-29T06:48:42.218Z,1001.58
2018-03-29T06:49:42.220Z,1001.57
2018-03-29T06:50:42.272Z,1001.53
2018-03-29T06:51:42.276Z,1001.57
2018-03-29T06:52:42.557Z,1001.55
2018-03-29T06:53:42.342Z,1001.53
2018-03-29T06:54:42.421Z,1001.53
2018-03-29T06:55:42.412Z,1001.57
2018-03-29T06:56:42.417Z,1001.57
2018-03-29T06:57:42.449Z,1001.59
2018-03-29T06:58:42.731Z,1001.56
2018-03-29T06:59:42.502Z,1001.57
2018-03-29T07:00:42.540Z,1001.57
2018-03-29T07:01:42.559Z,1001.57
2018-03-29T07:02:42.599Z,1001.59
2018-03-29T07:03:42.619Z,1001.58
2018-03-29T07:04:42.896Z,1001.59
2018-03-29T07:05:42.676Z,1001.58
2018-03-29T07:06:42.804Z,1001.55
2018-03-29T07:07:42.735Z,1001.57
2018-03-29T07:08:42.761Z,1001.61
2018-03-29T07:09:42.815Z,1001.55
2018-03-29T07:10:43.072Z,1001.47
2018-03-29T07:11:42.845Z,1001.47
2018-03-29T07:12:42.878Z,1001.48
2018-03-29T07:13:42.910Z,1001.49
2018-03-29T07:14:42.941Z,1001.48
2018-03-29T07:15:42.965Z,1001.52
2018-03-29T07:16:43.294Z,1001.49
2018-03-29T07:17:43.029Z,1001.45
2018-03-29T07:18:43.096Z,1001.52
2018-03-29T07:19:43.075Z,1001.51
2018-03-29T07:20:43.132Z,1001.51
2018-03-29T07:21:43.152Z,1001.52
2018-03-29T07:22:43.190Z,1001.50
2018-03-29T07:23:43.448Z,1001.49
2018-03-29T07:24:43.219Z,1001.52
2018-03-29T07:25:43.256Z,1001.51
2018-03-29T07:26:43.296Z,1001.54
2018-03-29T07:27:43.410Z,1001.52
2018-03-29T07:28:43.341Z,1001.52
2018-03-29T07:29:43.365Z,1001.49
2018-03-29T07:30:43.696Z,1001.55
2018-03-29T07:31:43.433Z,1001.56
2018-03-29T07:32:43.459Z,1001.58
2018-03-29T07:33:43.477Z,1001.64
2018-03-29T07:34:43.512Z,1001.66
2018-03-29T07:35:43.538Z,1001.66
2018-03-29T07:36:43.585Z,1001.71
2018-03-29T07:37:43.909Z,1001.77
2018-03-29T07:38:43.629Z,1001.77
2018-03-29T07:39:43.660Z,1001.75
2018-03-29T07:40:43.728Z,1001.79
2018-03-29T07:41:43.713Z,1001.79
2018-03-29T07:42:43.736Z,1001.77
2018-03-29T07:43:43.769Z,1001.82
2018-03-29T07:44:44.104Z,1001.84
2018-03-29T07:45:43.828Z,1001.82
2018-03-29T07:46:43.862Z,1001.81
2018-03-29T07:47:43.887Z,1001.89
2018-03-29T07:48:43.939Z,1001.85
2018-03-29T07:49:43.952Z,1001.87
2018-03-29T07:50:43.970Z,1001.84
2018-03-29T07:51:44.304Z,1001.86
2018-03-29T07:52:44.030Z,1001.88
2018-03-29T07:53:44.058Z,1001.84
2018-03-29T07:54:44.083Z,1001.84
2018-03-29T07:55:44.131Z,1001.83
2018-03-29T07:56:44.147Z,1001.81
2018-03-29T07:57:44.257Z,1001.85
2018-03-29T07:58:44.452Z,1001.85
2018-03-29T07:59:44.230Z,1001.81
2018-03-29T08:00:44.267Z,1001.89
2018-03-29T08:01:44.296Z,1001.87
2018-03-29T08:02:44.313Z,1001.91
2018-03-29T08:03:44.343Z,1001.87
2018-03-29T08:04:44.376Z,1001.94
2018-03-29T08:05:44.699Z,1001.90
2018-03-29T08:06:44.426Z,1002.00
2018-03-29T08:07:44.459Z,1001.89
2018-03-29T08:08:44.493Z,1001.96
2018-03-29T08:09:44.515Z,1002.01
2018-03-29T08:10:44.550Z,1002.02
2018-03-29T08:11:44.574Z,1002.02
2018-03-29T08:12:44.913Z,1001.97
2018-03-29T08:13:44.699Z,1001.99
2018-03-29T08:14:44.674Z,1001.99
2018-03-29T08:15:44.686Z,1002.02
2018-03-29T08:16:44.722Z,1002.05
2018-03-29T08:17:44.762Z,1002.02
2018-03-29T08:18:44.788Z,1002.05
2018-03-29T08:19:45.132Z,1002.04
2018-03-29T08:20:44.838Z,1002.05
2018-03-29T08:21:44.874Z,1002.08
2018-03-29T08:22:44.890Z,1002.01
2018-03-29T08:23:44.972Z,1002.05
2018-03-29T08:24:44.995Z,1002.09
2018-03-29T08:25:44.987Z,1002.09
2018-03-29T08:26:45.253Z,1002.05
2018-03-29T08:27:45.038Z,1002.08
2018-03-29T08:28:45.066Z,1002.06
2018-03-29T08:29:45.095Z,1002.06
2018-03-29T08:30:45.122Z,1002.07
2018-03-29T08:31:45.151Z,1002.05
2018-03-29T08:32:45.181Z,1002.05
2018-03-29T08:33:45.456Z,1002.06
2018-03-29T08:34:45.246Z,1002.04
2018-03-29T08:35:45.263Z,1002.10
2018-03-29T08:36:45.290Z,1002.04
2018-03-29T08:37:45.342Z,1002.09
2018-03-29T08:38:45.364Z,1002.14
2018-03-29T08:39:45.684Z,1002.11
2018-03-29T08:40:45.408Z,1002.12
2018-03-29T08:41:45.482Z,1002.17
2018-03-29T08:42:45.468Z,1002.17
2018-03-29T08:43:45.511Z,1002.16
2018-03-29T08:44:45.533Z,1002.14
2018-03-29T08:45:45.804Z,1002.15
2018-03-29T08:46:45.613Z,1002.17
2018-03-29T08:47:45.640Z,1002.15
2018-03-29T08:48:45.640Z,1002.15
2018-03-29T08:49:45.673Z,1002.15
2018-03-29T08:50:45.705Z,1002.13
2018-03-29T08:51:46.036Z,1002.12
2018-03-29T08:52:45.756Z,1002.11
2018-03-29T08:53:45.789Z,1002.18
2018-03-29T08:54:45.814Z,1002.12
2018-03-29T08:55:45.884Z,1002.13
2018-03-29T08:56:45.891Z,1002.14
2018-03-29T08:57:46.158Z,1002.16
2018-03-29T08:58:45.924Z,1002.13
2018-03-29T08:59:45.960Z,1002.16
2018-03-29T09:00:45.998Z,1002.14
2018-03-29T09:01:46.020Z,1002.16
2018-03-29T09:02:46.047Z,1002.10
2018-03-29T09:03:46.371Z,1002.12
2018-03-29T09:04:46.106Z,1002.14
2018-03-29T09:05:46.127Z,1002.10
2018-03-29T09:06:46.158Z,1002.16
2018-03-29T09:07:46.185Z,1002.13
2018-03-29T09:08:46.220Z,1002.13
2018-03-29T09:09:46.554Z,1002.17
2018-03-29T09:10:46.275Z,1002.12
2018-03-29T09:11:46.301Z,1002.16
2018-03-29T09:12:46.337Z,1002.15
2018-03-29T09:13:46.363Z,1002.19
2018-03-29T09:14:46.387Z,1002.14
2018-03-29T09:15:46.725Z,1002.19
2018-03-29T09:16:46.447Z,1002.20
2018-03-29T09:17:46.477Z,1002.15
2018-03-29T09:18:46.543Z,1002.20
2018-03-29T09:19:46.539Z,1002.22
2018-03-29T09:20:46.569Z,1002.27
2018-03-29T09:21:46.912Z,1002.25
2018-03-29T09:22:46.636Z,1002.28
2018-03-29T09:23:46.898Z,1002.30
2018-03-29T09:24:46.720Z,1002.29
2018-03-29T09:25:46.715Z,1002.28
2018-03-29T09:26:46.742Z,1002.35
2018-03-29T09:27:47.094Z,1002.34
2018-03-29T09:28:46.799Z,1002.31
2018-03-29T09:29:46.834Z,1002.38
2018-03-29T09:30:46.868Z,1002.41
2018-03-29T09:31:46.911Z,1002.39
2018-03-29T09:32:46.994Z,1002.39
2018-03-29T09:33:47.254Z,1002.37
2018-03-29T09:34:46.996Z,1002.35
2018-03-29T09:35:47.001Z,1002.36
2018-03-29T09:36:47.033Z,1002.44
2018-03-29T09:37:47.077Z,1002.45
2018-03-29T09:38:47.099Z,1002.42
2018-03-29T09:39:47.445Z,1002.41
2018-03-29T09:40:47.145Z,1002.40
2018-03-29T09:41:47.267Z,1002.43
2018-03-29T09:42:47.207Z,1002.39
2018-03-29T09:43:47.275Z,1002.44
2018-03-29T09:44:47.277Z,1002.44
2018-03-29T09:45:47.600Z,1002.45
2018-03-29T09:46:47.324Z,1002.44
2018-03-29T09:47:47.349Z,1002.43
2018-03-29T09:48:47.582Z,1002.44
2018-03-29T09:49:47.416Z,1002.43
2018-03-29T09:50:47.428Z,1002.41
2018-03-29T09:51:48.310Z,1002.41
2018-03-29T09:52:47.742Z,1002.40
2018-03-29T09:53:47.522Z,1002.39
2018-03-29T09:54:47.551Z,1002.43
2018-03-29T09:55:47.594Z,1002.42
2018-03-29T09:56:47.618Z,1002.40
2018-03-29T09:57:47.646Z,1002.40
2018-03-29T09:58:47.723Z,1002.37
2018-03-29T09:59:47.962Z,1002.41
2018-03-29T10:00:47.734Z,1002.40
2018-03-29T10:01:47.780Z,1002.37
2018-03-29T10:02:47.788Z,1002.35
2018-03-29T10:03:47.868Z,1002.43
2018-03-29T10:04:47.997Z,1002.36
2018-03-29T10:05:47.871Z,1002.41
2018-03-29T10:06:48.196Z,1002.37
2018-03-29T10:07:47.943Z,1002.37
2018-03-29T10:08:47.972Z,1002.38
2018-03-29T10:09:47.987Z,1002.35
2018-03-29T10:10:48.019Z,1002.33
2018-03-29T10:11:48.054Z,1002.37
2018-03-29T10:12:48.073Z,1002.34
2018-03-29T10:13:48.359Z,1002.35
2018-03-29T10:14:48.154Z,1002.36
2018-03-29T10:15:48.171Z,1002.31
2018-03-29T10:16:48.199Z,1002.32
2018-03-29T10:17:48.225Z,1002.29
2018-03-29T10:18:48.276Z,1002.33
2018-03-29T10:19:48.277Z,1002.34
2018-03-29T10:20:48.619Z,1002.35
2018-03-29T10:21:48.337Z,1002.33
2018-03-29T10:22:48.370Z,1002.36
2018-03-29T10:23:48.397Z,1002.34
2018-03-29T10:24:48.424Z,1002.33
2018-03-29T10:25:48.459Z,1002.30
2018-03-29T10:26:48.484Z,1002.32
2018-03-29T10:27:48.784Z,1002.27
2018-03-29T10:28:48.542Z,1002.29
2018-03-29T10:29:48.585Z,1002.25
2018-03-29T10:30:48.601Z,1002.21
2018-03-29T10:31:48.692Z,1002.23
2018-03-29T10:32:48.662Z,1002.21
2018-03-29T10:33:48.690Z,1002.17
2018-03-29T10:34:48.975Z,1002.19
2018-03-29T10:35:48.805Z,1002.14
2018-03-29T10:36:48.779Z,1002.17
2018-03-29T10:37:48.822Z,1002.19
2018-03-29T10:38:48.836Z,1002.21
2018-03-29T10:39:48.884Z,1002.16
2018-03-29T10:40:48.913Z,1002.18
2018-03-29T10:41:49.230Z,1002.19
2018-03-29T10:42:48.955Z,1002.14
2018-03-29T10:43:48.989Z,1002.11
2018-03-29T10:44:49.018Z,1002.10
2018-03-29T10:45:49.053Z,1002.06
2018-03-29T10:46:49.069Z,1002.06
2018-03-29T10:47:49.171Z,1002.08
2018-03-29T10:48:49.406Z,1002.06
2018-03-29T10:49:49.170Z,1002.09
2018-03-29T10:50:49.192Z,1002.08
2018-03-29T10:51:49.219Z,1002.10
2018-03-29T10:52:49.252Z,1002.04
2018-03-29T10:53:49.278Z,1002.05
2018-03-29T10:54:49.313Z,1002.06
2018-03-29T10:55:49.639Z,1002.07
2018-03-29T10:56:49.387Z,1002.04
2018-03-29T10:57:49.409Z,1002.05
2018-03-29T10:58:49.459Z,1002.04
2018-03-29T10:59:49.477Z,1002.05
2018-03-29T11:00:49.529Z,1002.02
2018-03-29T11:01:49.527Z,1002.05
2018-03-29T11:02:50.002Z,1002.05
2018-03-29T11:03:49.587Z,1002.05
2018-03-29T11:04:49.660Z,1002.03
2018-03-29T11:05:49.671Z,1001.98
2018-03-29T11:06:49.694Z,1002.01
2018-03-29T11:07:49.705Z,1002.00
2018-03-29T11:08:49.740Z,1002.02
2018-03-29T11:09:50.053Z,1002.00
2018-03-29T11:10:49.787Z,1001.98
2018-03-29T11:11:49.812Z,1001.92
2018-03-29T11:12:49.841Z,1001.95
2018-03-29T11:13:49.871Z,1001.98
2018-03-29T11:14:49.900Z,1002.00
2018-03-29T11:15:50.245Z,1002.02
2018-03-29T11:16:50.011Z,1001.94
2018-03-29T11:17:50.142Z,1001.94
2018-03-29T11:18:50.039Z,1001.93
2018-03-29T11:19:50.051Z,1001.96
2018-03-29T11:20:50.086Z,1001.96
2018-03-29T11:21:50.411Z,1001.97
2018-03-29T11:22:50.137Z,1001.94
2018-03-29T11:23:50.178Z,1001.92
2018-03-29T11:24:50.198Z,1001.91
2018-03-29T11:25:50.248Z,1001.96
2018-03-29T11:26:50.295Z,1001.91
2018-03-29T11:27:50.647Z,1001.94
2018-03-29T11:28:50.318Z,1001.92
2018-03-29T11:29:50.543Z,1001.95
2018-03-29T11:30:50.437Z,1001.96
2018-03-29T11:31:50.415Z,1001.95
2018-03-29T11:32:50.437Z,1001.97
2018-03-29T11:33:50.772Z,1002.02
2018-03-29T11:34:50.503Z,1001.99
2018-03-29T11:35:50.543Z,1002.01
2018-03-29T11:36:50.571Z,1001.99
2018-03-29T11:37:50.614Z,1002.07
2018-03-29T11:38:50.632Z,1002.05
2018-03-29T11:39:50.649Z,1002.07
2018-03-29T11:40:50.957Z,1002.05
2018-03-29T11:41:50.710Z,1002.07
2018-03-29T11:42:50.748Z,1002.09
2018-03-29T11:43:50.780Z,1002.10
2018-03-29T11:44:50.798Z,1002.04
2018-03-29T11:45:50.841Z,1002.04
2018-03-29T11:46:50.856Z,1002.07
2018-03-29T11:47:50.897Z,1002.07
2018-03-29T11:48:51.026Z,1002.05
2018-03-29T11:49:50.959Z,1002.08
2018-03-29T11:50:50.993Z,1002.02
2018-03-29T11:51:51.078Z,1002.00
2018-03-29T11:52:51.373Z,1001.99
2018-03-29T11:53:51.074Z,1002.00
2018-03-29T11:54:51.148Z,1002.02
2018-03-29T11:55:51.147Z,1002.09
2018-03-29T11:56:51.282Z,1002.16
2018-03-29T11:57:51.200Z,1002.13
2018-03-29T11:58:51.245Z,1002.15
2018-03-29T11:59:51.332Z,1002.22
2018-03-29T12:00:51.335Z,1002.27
2018-03-29T12:01:51.394Z,1002.28
2018-03-29T12:02:51.360Z,1002.24
2018-03-29T12:03:51.378Z,1002.35
2018-03-29T12:04:51.715Z,1002.51
2018-03-29T12:05:51.435Z,1002.57
2018-03-29T12:06:51.516Z,1002.57